createdAt,value
2019-04-01T00:00:45.687Z,31.70
2019-04-01T00:03:30.244Z,33.80
2019-04-01T00:06:14.568Z,32.93
2019-04-01T00:08:59.163Z,31.20
2019-04-01T00:11:53.242Z,32.33
2019-04-01T00:14:46.724Z,32.53
2019-04-01T00:17:31.493Z,31.97
2019-04-01T00:20:16.134Z,31.93
2019-04-01T00:23:01.312Z,31.77
2019-04-01T00:25:55.050Z,30.83
2019-04-01T00:28:39.872Z,33.13
2019-04-01T00:31:24.710Z,31.13
2019-04-01T00:34:09.103Z,32.67
2019-04-01T00:36:54.048Z,33.10
2019-04-01T00:39:38.791Z,31.87
2019-04-01T00:45:42.283Z,32.57
2019-04-01T00:48:37.810Z,31.27
2019-04-01T00:51:22.379Z,31.50
2019-04-01T00:54:07.679Z,33.10
2019-04-01T00:57:01.689Z,31.60
2019-04-01T00:59:45.794Z,30.90
2019-04-01T01:02:30.178Z,31.10
2019-04-01T01:05:23.342Z,31.30
2019-04-01T01:08:08.047Z,31.57
2019-04-01T01:10:52.767Z,29.73
2019-04-01T01:13:37.548Z,30.27
2019-04-01T01:16:22.608Z,30.30
2019-04-01T01:19:07.534Z,30.03
2019-04-01T01:21:52.157Z,29.13
2019-04-01T01:24:36.921Z,29.57
2019-04-01T01:27:21.604Z,31.23
2019-04-01T01:30:06.211Z,30.13
2019-04-01T01:32:50.815Z,30.40
2019-04-01T01:35:44.278Z,29.73
2019-04-01T01:38:29.819Z,30.30
2019-04-01T01:41:14.867Z,32.10
2019-04-01T01:43:59.038Z,30.30
2019-04-01T01:46:52.675Z,31.03
2019-04-01T01:49:37.401Z,30.37
2019-04-01T01:52:22.126Z,28.23
2019-04-01T01:55:06.231Z,30.63
2019-04-01T01:57:59.691Z,29.00
2019-04-01T02:00:44.711Z,29.97
2019-04-01T02:03:39.881Z,29.17
2019-04-01T02:06:24.259Z,29.73
2019-04-01T02:09:08.618Z,29.10
2019-04-01T02:12:01.827Z,29.47
2019-04-01T02:14:47.047Z,30.40
2019-04-01T02:17:31.476Z,29.33
2019-04-01T02:20:16.464Z,29.67
2019-04-01T02:23:01.007Z,30.03
2019-04-01T02:25:45.475Z,30.03
2019-04-01T02:28:38.690Z,28.70
2019-04-01T02:31:23.679Z,29.53
2019-04-01T02:34:08.274Z,29.47
2019-04-01T02:36:53.288Z,28.10
2019-04-01T02:39:38.315Z,29.53
2019-04-01T02:42:32.347Z,29.73
2019-04-01T02:45:16.736Z,29.13
2019-04-01T02:48:01.492Z,30.27
2019-04-01T02:50:46.203Z,29.63
2019-04-01T02:53:31.289Z,28.00
2019-04-01T02:56:15.843Z,29.53
2019-04-01T02:59:00.477Z,29.43
2019-04-01T03:01:45.476Z,29.87
2019-04-01T03:04:30.517Z,29.77
2019-04-01T03:07:14.993Z,29.30
2019-04-01T03:09:59.492Z,29.77
2019-04-01T03:12:44.211Z,28.70
2019-04-01T03:15:28.895Z,28.47
2019-04-01T03:18:22.367Z,29.40
2019-04-01T03:21:06.859Z,29.03
2019-04-01T03:23:51.510Z,29.67
2019-04-01T03:26:36.057Z,29.23
2019-04-01T03:29:20.475Z,29.03
2019-04-01T03:32:14.024Z,30.40
2019-04-01T03:34:58.744Z,27.10
2019-04-01T03:37:43.426Z,28.00
2019-04-01T03:40:28.117Z,29.40
2019-04-01T03:43:12.587Z,28.47
2019-04-01T03:45:58.613Z,27.93
2019-04-01T03:48:52.527Z,28.80
2019-04-01T03:51:46.489Z,28.77
2019-04-01T03:54:30.721Z,30.10
2019-04-01T03:57:15.438Z,28.07
2019-04-01T04:00:00.827Z,28.40
2019-04-01T04:02:45.380Z,30.03
2019-04-01T04:05:29.688Z,29.23
2019-04-01T04:08:14.973Z,29.00
2019-04-01T04:10:59.584Z,29.20
2019-04-01T04:13:44.059Z,29.17
2019-04-01T04:16:28.707Z,29.43
2019-04-01T04:19:21.984Z,29.63
2019-04-01T04:22:06.662Z,29.70
2019-04-01T04:24:52.160Z,29.67
2019-04-01T04:27:45.441Z,28.57
2019-04-01T04:30:30.084Z,27.90
2019-04-01T04:33:14.637Z,30.50
2019-04-01T04:36:07.895Z,30.53
2019-04-01T04:38:52.627Z,31.10
2019-04-01T04:41:37.321Z,29.77
2019-04-01T04:44:21.979Z,28.93
2019-04-01T04:47:06.764Z,29.47
2019-04-01T04:49:51.082Z,28.77
2019-04-01T04:52:44.703Z,27.87
2019-04-01T04:55:38.607Z,30.07
2019-04-01T04:58:23.563Z,29.30
2019-04-01T05:01:08.464Z,28.50
2019-04-01T05:03:53.108Z,30.23
2019-04-01T05:06:37.501Z,29.57
2019-04-01T05:09:22.252Z,27.50
2019-04-01T05:12:07.144Z,28.27
2019-04-01T05:14:51.951Z,30.30
2019-04-01T05:17:36.568Z,29.20
2019-04-01T05:20:20.966Z,30.50
2019-04-01T05:23:14.815Z,29.57
2019-04-01T05:26:09.002Z,27.87
2019-04-01T05:29:02.819Z,29.90
2019-04-01T05:31:47.768Z,29.50
2019-04-01T05:34:31.900Z,28.97
2019-04-01T05:37:16.531Z,28.97
2019-04-01T05:40:01.190Z,29.97
2019-04-01T05:42:45.453Z,30.00
2019-04-01T05:45:30.876Z,30.30
2019-04-01T05:48:16.674Z,30.97
2019-04-01T05:51:11.147Z,29.37
2019-04-01T05:53:58.215Z,30.00
2019-04-01T05:56:44.363Z,30.50
2019-04-01T05:59:28.590Z,30.07
2019-04-01T06:02:12.907Z,30.37
2019-04-01T06:05:06.440Z,28.47
2019-04-01T06:07:51.231Z,29.60
2019-04-01T06:10:35.584Z,29.23
2019-04-01T06:13:20.758Z,30.73
2019-04-01T06:16:05.799Z,30.90
2019-04-01T06:18:59.523Z,29.43
2019-04-01T06:21:44.479Z,31.73
2019-04-01T06:24:29.140Z,32.03
2019-04-01T06:27:13.974Z,31.43
2019-04-01T06:29:59.376Z,31.67
2019-04-01T06:32:52.916Z,31.57
2019-04-01T06:35:37.459Z,31.77
2019-04-01T06:38:22.053Z,32.57
2019-04-01T06:41:06.824Z,30.50
2019-04-01T06:43:51.110Z,29.30
2019-04-01T06:46:44.498Z,29.87
2019-04-01T06:49:29.389Z,30.43
2019-04-01T06:52:13.899Z,30.90
2019-04-01T06:54:58.296Z,31.20
2019-04-01T06:57:51.522Z,31.17
2019-04-01T07:00:36.243Z,31.00
2019-04-01T07:03:20.924Z,30.60
2019-04-01T07:06:05.399Z,30.90
2019-04-01T07:08:50.099Z,31.17
2019-04-01T07:11:34.767Z,30.73
2019-04-01T07:14:19.467Z,30.37
2019-04-01T07:17:12.945Z,30.47
2019-04-01T07:19:57.353Z,30.57
2019-04-01T07:22:42.109Z,29.57
2019-04-01T07:25:26.546Z,29.77
2019-04-01T07:28:19.852Z,30.10
2019-04-01T07:31:04.651Z,30.60
2019-04-01T07:33:49.192Z,29.53
2019-04-01T07:36:33.786Z,30.20
2019-04-01T07:39:28.279Z,29.77
2019-04-01T07:42:12.932Z,29.57
2019-04-01T07:44:57.440Z,29.37
2019-04-01T07:47:41.951Z,28.77
2019-04-01T07:50:35.231Z,30.57
2019-04-01T07:53:20.028Z,29.17
2019-04-01T07:56:04.925Z,29.20
2019-04-01T07:58:49.855Z,30.70
2019-04-01T08:01:34.646Z,31.13
2019-04-01T08:04:19.207Z,30.13
2019-04-01T08:07:03.922Z,30.07
2019-04-01T08:09:48.567Z,31.67
2019-04-01T08:12:33.676Z,30.20
2019-04-01T08:15:21.217Z,31.03
2019-04-01T08:18:04.808Z,30.03
2019-04-01T08:20:49.451Z,31.03
2019-04-01T08:23:34.362Z,30.37
2019-04-01T08:26:18.823Z,30.40
2019-04-01T08:29:03.625Z,30.53
2019-04-01T08:31:48.227Z,30.10
2019-04-01T08:34:32.807Z,31.17
2019-04-01T08:37:26.405Z,30.23
2019-04-01T08:40:11.280Z,30.23
2019-04-01T08:42:55.930Z,30.27
2019-04-01T08:45:40.931Z,31.53
2019-04-01T08:48:25.715Z,29.77
2019-04-01T08:51:10.278Z,32.43
2019-04-01T08:53:54.643Z,29.73
2019-04-01T08:56:38.980Z,29.63
2019-04-01T08:59:31.987Z,30.50
2019-04-01T09:02:18.399Z,29.43
2019-04-01T09:05:03.677Z,31.57
2019-04-01T09:07:47.993Z,29.23
2019-04-01T09:10:32.937Z,29.90
2019-04-01T09:13:17.673Z,29.63
2019-04-01T09:16:02.788Z,30.53
2019-04-01T09:18:47.175Z,31.03
2019-04-01T09:21:41.734Z,30.83
2019-04-01T09:24:26.539Z,29.83
2019-04-01T09:27:11.095Z,29.67
2019-04-01T09:29:56.003Z,29.60
2019-04-01T09:32:40.599Z,28.53
2019-04-01T09:35:25.531Z,29.77
2019-04-01T09:38:10.328Z,29.90
2019-04-01T09:40:55.032Z,30.33
2019-04-01T09:43:39.879Z,29.23
2019-04-01T09:46:24.668Z,30.13
2019-04-01T09:49:09.275Z,29.47
2019-04-01T09:51:53.769Z,28.83
2019-04-01T09:54:46.933Z,29.27
2019-04-01T09:57:31.390Z,27.40
2019-04-01T10:00:24.738Z,28.03
2019-04-01T10:03:10.147Z,28.37
2019-04-01T10:06:03.631Z,29.73
2019-04-01T10:08:48.627Z,28.83
2019-04-01T10:11:33.571Z,29.03
2019-04-01T10:14:17.803Z,29.93
2019-04-01T10:17:02.236Z,29.77
2019-04-01T10:19:46.759Z,29.77
2019-04-01T10:22:40.194Z,27.93
2019-04-01T10:25:25.108Z,28.60
2019-04-01T10:28:09.234Z,28.87
2019-04-01T10:30:53.887Z,29.33
2019-04-01T10:33:46.923Z,27.90
2019-04-01T10:36:31.732Z,28.07
2019-04-01T10:39:16.819Z,28.40
2019-04-01T10:42:01.839Z,27.43
2019-04-01T10:44:46.031Z,28.07
2019-04-01T10:47:30.925Z,28.20
2019-04-01T10:50:15.611Z,28.03
2019-04-01T10:53:00.397Z,26.97
2019-04-01T10:55:45.292Z,28.30
2019-04-01T10:58:30.397Z,28.20
2019-04-01T11:01:14.864Z,25.63
2019-04-01T11:03:59.565Z,28.07
2019-04-01T11:06:44.426Z,25.87
2019-04-01T11:09:38.099Z,25.50
2019-04-01T11:12:15.535Z,24.20
2019-04-01T11:15:00.473Z,25.33
2019-04-01T11:17:45.136Z,24.53
2019-04-01T11:20:29.903Z,24.73
2019-04-01T11:23:14.441Z,24.13
2019-04-01T11:26:07.433Z,24.67
2019-04-01T11:28:52.584Z,23.43
2019-04-01T11:31:37.025Z,23.53
2019-04-01T11:34:31.714Z,24.23
2019-04-01T11:37:16.154Z,23.20
2019-04-01T11:40:00.820Z,24.73
2019-04-01T11:42:45.622Z,25.17
2019-04-01T11:45:30.639Z,24.17
2019-04-01T11:48:15.385Z,24.03
2019-04-01T11:51:00.008Z,25.27
2019-04-01T11:53:44.888Z,23.10
2019-04-01T11:56:29.724Z,23.43
2019-04-01T11:59:14.965Z,21.70
2019-04-01T12:01:59.620Z,21.40
2019-04-01T12:04:43.991Z,22.63
2019-04-01T12:07:28.632Z,24.00
2019-04-01T12:10:13.023Z,22.53
2019-04-01T12:13:06.591Z,22.00
2019-04-01T12:15:51.431Z,21.83
2019-04-01T12:18:35.924Z,22.60
2019-04-01T12:21:20.495Z,21.87
2019-04-01T12:24:05.255Z,22.40
2019-04-01T12:26:49.483Z,21.13
2019-04-01T12:29:37.740Z,20.13
2019-04-01T12:32:30.866Z,19.87
2019-04-01T12:35:16.026Z,19.97
2019-04-01T12:38:00.612Z,20.47
2019-04-01T12:40:45.156Z,20.40
2019-04-01T12:43:29.847Z,20.73
2019-04-01T12:46:14.359Z,18.50
2019-04-01T12:49:07.771Z,20.00
2019-04-01T12:51:52.429Z,19.87
2019-04-01T12:54:37.122Z,19.53
2019-04-01T12:57:22.186Z,18.90
2019-04-01T13:00:09.005Z,17.07
2019-04-01T13:03:03.375Z,18.50
2019-04-01T13:05:48.035Z,18.87
2019-04-01T13:08:32.495Z,18.43
2019-04-01T13:11:17.539Z,18.10
2019-04-01T13:14:02.171Z,19.27
2019-04-01T13:16:46.339Z,18.47
2019-04-01T13:19:39.927Z,17.70
2019-04-01T13:22:24.581Z,18.70
2019-04-01T13:25:09.519Z,17.90
2019-04-01T13:27:54.283Z,18.67
2019-04-01T13:30:38.951Z,18.07
2019-04-01T13:33:23.455Z,17.57
2019-04-01T13:36:08.776Z,18.40
2019-04-01T13:38:53.143Z,16.40
2019-04-01T13:41:42.606Z,18.23
2019-04-01T13:44:36.170Z,17.77
2019-04-01T13:47:10.827Z,17.20
2019-04-01T13:49:55.507Z,17.60
2019-04-01T13:52:40.383Z,17.43
2019-04-01T13:55:25.551Z,17.70
2019-04-01T13:58:10.901Z,17.93
2019-04-01T14:00:57.408Z,17.57
2019-04-01T14:03:50.650Z,17.70
2019-04-01T14:06:35.502Z,18.73
2019-04-01T14:09:20.850Z,17.57
2019-04-01T14:12:14.409Z,17.87
2019-04-01T14:14:58.904Z,16.63
2019-04-01T14:17:43.280Z,17.00
2019-04-01T14:20:36.599Z,17.40
2019-04-01T14:23:23.429Z,17.07
2019-04-01T14:26:07.061Z,16.63
2019-04-01T14:29:00.230Z,16.03
2019-04-01T14:31:44.880Z,15.70
2019-04-01T14:34:29.651Z,16.03
2019-04-01T14:37:14.140Z,15.83
2019-04-01T14:40:08.547Z,15.27
2019-04-01T14:42:52.963Z,16.67
2019-04-01T14:45:46.527Z,15.03
2019-04-01T14:48:30.994Z,16.30
2019-04-01T14:51:15.586Z,15.47
2019-04-01T14:54:00.227Z,16.40
2019-04-01T14:56:44.759Z,16.50
2019-04-01T14:59:37.995Z,15.77
2019-04-01T15:02:23.052Z,16.20
2019-04-01T15:05:07.798Z,16.10
2019-04-01T15:07:52.431Z,16.03
2019-04-01T15:10:39.377Z,16.17
2019-04-01T15:13:23.256Z,15.37
2019-04-01T15:16:07.989Z,15.37
2019-04-01T15:18:52.599Z,15.60
2019-04-01T15:21:47.502Z,15.00
2019-04-01T15:24:33.587Z,14.87
2019-04-01T15:27:18.359Z,14.53
2019-04-01T15:30:02.511Z,14.73
2019-04-01T15:32:56.110Z,15.33
2019-04-01T15:35:41.166Z,15.40
2019-04-01T15:38:25.683Z,15.47
2019-04-01T15:41:10.222Z,15.53
2019-04-01T15:43:54.923Z,14.73
2019-04-01T15:46:39.495Z,14.57
2019-04-01T15:49:24.378Z,14.93
2019-04-01T15:52:08.719Z,14.40
2019-04-01T15:55:02.556Z,14.93
2019-04-01T15:57:57.114Z,14.27
2019-04-01T16:00:50.503Z,14.87
2019-04-01T16:03:44.607Z,15.10
2019-04-01T16:06:29.104Z,15.30
2019-04-01T16:09:13.637Z,14.70
2019-04-01T16:12:06.966Z,14.30
2019-04-01T16:14:51.627Z,14.87
2019-04-01T16:17:36.187Z,14.47
2019-04-01T16:20:20.462Z,14.40
2019-04-01T16:23:13.935Z,14.37
2019-04-01T16:25:58.369Z,14.10
2019-04-01T16:28:42.883Z,14.73
2019-04-01T16:31:27.683Z,15.27
2019-04-01T16:34:12.226Z,15.33
2019-04-01T16:37:05.542Z,16.20
2019-04-01T16:39:50.490Z,14.93
2019-04-01T16:42:34.897Z,14.77
2019-04-01T16:45:19.548Z,14.53
2019-04-01T16:48:04.387Z,16.20
2019-04-01T16:50:50.487Z,14.37
2019-04-01T16:53:46.139Z,15.17
2019-04-01T16:56:39.306Z,14.73
2019-04-01T16:59:23.756Z,15.17
2019-04-01T17:02:17.833Z,14.73
2019-04-01T17:05:03.467Z,15.60
2019-04-01T17:07:48.366Z,15.40
2019-04-01T17:10:33.237Z,15.63
2019-04-01T17:13:27.210Z,14.53
2019-04-01T17:16:12.284Z,15.03
2019-04-01T17:18:57.801Z,15.37
2019-04-01T17:21:42.083Z,14.90
2019-04-01T17:24:27.973Z,15.93
2019-04-01T17:27:12.191Z,14.57
2019-04-01T17:30:06.122Z,15.33
2019-04-01T17:32:51.918Z,15.33
2019-04-01T17:35:36.396Z,16.00
2019-04-01T17:38:21.364Z,16.52
2019-04-01T17:41:05.862Z,15.53
2019-04-01T17:43:50.251Z,15.53
2019-04-01T17:46:43.864Z,15.13
2019-04-01T17:49:28.534Z,14.73
2019-04-01T17:52:13.362Z,16.03
2019-04-01T17:54:58.551Z,15.93
2019-04-01T17:57:43.123Z,15.67
2019-04-01T18:00:28.351Z,15.87
2019-04-01T18:03:29.974Z,16.07
2019-04-01T18:06:15.240Z,16.33
2019-04-01T18:09:09.235Z,16.77
2019-04-01T18:12:02.692Z,15.57
2019-04-01T18:14:48.004Z,15.50
2019-04-01T18:17:41.684Z,15.50
2019-04-01T18:20:26.714Z,15.70
2019-04-01T18:23:11.164Z,15.87
2019-04-01T18:25:55.638Z,16.47
2019-04-01T18:28:40.325Z,16.43
2019-04-01T18:31:25.776Z,17.43
2019-04-01T18:34:10.463Z,16.30
2019-04-01T18:36:55.201Z,15.43
2019-04-01T18:39:48.011Z,15.50
2019-04-01T18:42:26.903Z,14.67
2019-04-01T18:45:21.405Z,29.67
2019-04-01T18:48:06.644Z,15.30
2019-04-01T18:50:52.841Z,30.23
2019-04-01T18:53:46.127Z,19.10
2019-04-01T18:56:30.801Z,16.93
2019-04-01T18:59:15.422Z,15.83
2019-04-01T19:01:59.767Z,16.50
2019-04-01T19:04:53.628Z,15.70
2019-04-01T19:07:47.937Z,15.60
2019-04-01T19:10:43.178Z,19.70
2019-04-01T19:13:28.165Z,95.13
2019-04-01T19:16:23.104Z,22.90
2019-04-01T19:19:08.183Z,15.17
2019-04-01T19:21:52.976Z,15.40
2019-04-01T19:24:38.441Z,14.87
2019-04-01T19:27:31.734Z,15.10
2019-04-01T19:30:16.176Z,15.33
2019-04-01T19:33:09.732Z,15.27
2019-04-01T19:35:54.631Z,15.53
2019-04-01T19:38:48.515Z,15.20
2019-04-01T19:41:33.159Z,13.87
2019-04-01T19:44:17.979Z,16.37
2019-04-01T19:47:03.032Z,14.47
2019-04-01T19:49:47.573Z,13.43
2019-04-01T19:52:32.108Z,15.20
2019-04-01T19:55:16.675Z,14.73
2019-04-01T19:58:01.168Z,13.53
2019-04-01T20:00:55.043Z,12.20
2019-04-01T20:03:48.731Z,13.20
2019-04-01T20:06:33.720Z,13.83
2019-04-01T20:09:18.481Z,14.00
2019-04-01T20:12:01.700Z,13.93
2019-04-01T20:14:53.584Z,14.10
2019-04-01T20:17:57.119Z,14.43
2019-04-01T20:20:50.462Z,14.20
2019-04-01T20:23:35.268Z,12.93
2019-04-01T20:26:19.901Z,13.10
2019-04-01T20:29:14.971Z,13.00
2019-04-01T20:31:59.697Z,13.00
2019-04-01T20:34:56.464Z,13.63
2019-04-01T20:37:40.027Z,14.27
2019-04-01T20:40:24.763Z,12.90
2019-04-01T20:43:09.675Z,14.20
2019-04-01T20:45:54.528Z,14.33
2019-04-01T20:48:39.117Z,14.50
2019-04-01T20:51:23.700Z,14.03
2019-04-01T20:54:10.906Z,15.20
2019-04-01T20:57:05.639Z,15.77
2019-04-01T20:59:50.127Z,14.20
2019-04-01T21:02:35.151Z,14.53
2019-04-01T21:05:19.687Z,16.70
2019-04-01T21:08:13.367Z,14.27
2019-04-01T21:10:56.687Z,17.57
2019-04-01T21:13:50.112Z,15.70
2019-04-01T21:16:35.083Z,15.73
2019-04-01T21:19:19.683Z,15.90
2019-04-01T21:22:04.410Z,16.20
2019-04-01T21:24:49.315Z,16.50
2019-04-01T21:27:34.264Z,16.63
2019-04-01T21:30:20.147Z,15.40
2019-04-01T21:33:05.351Z,16.57
2019-04-01T21:35:48.357Z,15.97
2019-04-01T21:38:40.223Z,15.70
2019-04-01T21:41:25.467Z,16.47
2019-04-01T21:44:10.065Z,15.97
2019-04-01T21:47:03.722Z,16.43
2019-04-01T21:49:48.556Z,16.30
2019-04-01T21:52:33.151Z,17.53
2019-04-01T21:55:27.495Z,16.83
2019-04-01T21:58:12.183Z,17.10
2019-04-01T22:00:58.190Z,18.60
2019-04-01T22:03:44.267Z,18.70
2019-04-01T22:06:37.720Z,17.53
2019-04-01T22:09:22.612Z,18.67
2019-04-01T22:12:06.915Z,18.23
2019-04-01T22:14:51.679Z,17.00
2019-04-01T22:17:36.234Z,18.40
2019-04-01T22:20:21.027Z,19.70
2019-04-01T22:23:06.267Z,19.27
2019-04-01T22:25:53.572Z,19.13
2019-04-01T22:28:47.163Z,19.27
2019-04-01T22:31:31.823Z,18.40
2019-04-01T22:34:16.275Z,19.27
2019-04-01T22:37:01.183Z,19.87
2019-04-01T22:39:46.086Z,19.77
2019-04-01T22:42:30.432Z,19.77
2019-04-01T22:45:15.440Z,19.77
2019-04-01T22:47:59.698Z,21.40
2019-04-01T22:50:52.759Z,20.60
2019-04-01T22:53:37.383Z,19.97
2019-04-01T22:56:21.804Z,20.27
2019-04-01T22:59:15.145Z,20.53
2019-04-01T23:01:59.841Z,20.93
2019-04-01T23:04:44.498Z,21.00
2019-04-01T23:07:29.364Z,21.00
2019-04-01T23:10:14.174Z,20.70
2019-04-01T23:12:59.051Z,20.77
2019-04-01T23:15:44.224Z,21.23
2019-04-01T23:18:37.750Z,21.57
2019-04-01T23:21:22.543Z,21.70
2019-04-01T23:24:07.575Z,21.57
2019-04-01T23:26:52.058Z,22.20
2019-04-01T23:29:36.957Z,22.70
2019-04-01T23:32:21.340Z,23.27
2019-04-01T23:35:14.614Z,21.50
2019-04-01T23:37:59.659Z,22.13
2019-04-01T23:40:44.103Z,21.13
2019-04-01T23:43:28.654Z,21.33
2019-04-01T23:46:13.134Z,23.57
2019-04-01T23:49:06.310Z,22.33
2019-04-01T23:51:50.963Z,22.43
2019-04-01T23:54:35.946Z,22.97
2019-04-01T23:57:20.494Z,23.67
